In Rescue
 
Open Full Screen Window  High Contrast Mode
Wind Gusting 00 knots
10
March 01, 2024 3:13 PM CST
Weather Information
Wind Direction
  190 °
Wind Speed
  10 kt (12 mph)
Wind Gust
  00 kt (0 mph)
Altimeter
29.63 in
Visibility
10 SM
Temperature
11° C
52° F
Dewpoint
00° C
32° F
Humidity
47%
Sky Condition
Clear
VFR

METAR KBJI 012113Z AUTO 19010KT 10SM CLR 11/00 A2963 RMK AO2 T01061005

FAA Disclaimer: The data displayed is for advisory purposes only and is not to be used for flight planning or operations.